KLM1848 LFLL-EDDM
Flight info
| Callsign | KLM1848 |
|---|---|
| Flight time | N/A |
| Altitude | 25000 |
| Route | BELUS8S/17R BELU8S BELUS Z87 SOPLO N871 DEGES Z5 BODAN Z601 KPT Y110 ATMAX Y100 MERSI MERS3A |
| Aircraft | B744/H-SDE3/L |
Departure
| Time | 2026-05-01 14:51 |
|---|---|
| Airport | Lyon Saint-Exupéry Airport (LFLL) |
Arrival
| Time | N/A |
|---|---|
| Airport | Munich Airport (EDDM) |
| Time | Latitude | Longitude | Altitude | Speed | Heading |
|---|---|---|---|---|---|
| 2026-05-01 14:19 | 45.72430 | 5.08256 | 792 ft | 0 kts | 180° |
| 2026-05-01 14:43 | 45.72433 | 5.08256 | 792 ft | 2 kts | 183° |
| 2026-05-01 14:43 | 45.72447 | 5.08261 | 791 ft | 2 kts | 197° |
| 2026-05-01 14:43 | 45.72461 | 5.08266 | 791 ft | 2 kts | 192° |
| 2026-05-01 14:43 | 45.72470 | 5.08269 | 791 ft | 1 kts | 190° |
| 2026-05-01 14:44 | 45.72477 | 5.08267 | 791 ft | 1 kts | 128° |
| 2026-05-01 14:44 | 45.72478 | 5.08247 | 791 ft | 1 kts | 73° |
| 2026-05-01 14:44 | 45.72478 | 5.08243 | 791 ft | 0 kts | 75° |
| 2026-05-01 14:46 | 45.72482 | 5.08264 | 791 ft | 2 kts | 75° |
| 2026-05-01 14:46 | 45.72488 | 5.08298 | 791 ft | 7 kts | 77° |
| 2026-05-01 14:47 | 45.72542 | 5.08384 | 791 ft | 17 kts | 6° |
| 2026-05-01 14:47 | 45.72694 | 5.08369 | 787 ft | 27 kts | 355° |
| 2026-05-01 14:47 | 45.72926 | 5.08341 | 782 ft | 38 kts | 354° |
| 2026-05-01 14:48 | 45.73389 | 5.08285 | 773 ft | 9 kts | 355° |
| 2026-05-01 14:48 | 45.73455 | 5.08277 | 772 ft | 9 kts | 355° |
| 2026-05-01 14:48 | 45.73583 | 5.08263 | 769 ft | 11 kts | 355° |
| 2026-05-01 14:49 | 45.73837 | 5.08231 | 765 ft | 24 kts | 355° |
| 2026-05-01 14:49 | 45.74261 | 5.08292 | 767 ft | 35 kts | 13° |
| 2026-05-01 14:50 | 45.74359 | 5.08563 | 767 ft | 15 kts | 86° |
| 2026-05-01 14:50 | 45.73610 | 5.08722 | 776 ft | 146 kts | 175° |
| 2026-05-01 14:51 | 45.72386 | 5.08836 | 1259 ft | 202 kts | 176° |
| 2026-05-01 14:51 | 45.68853 | 5.09431 | 2552 ft | 307 kts | 171° |
| 2026-05-01 14:52 | 45.65319 | 5.12230 | 6100 ft | 303 kts | 129° |
| 2026-05-01 14:52 | 45.64450 | 5.14829 | 7931 ft | 297 kts | 106° |
| 2026-05-01 14:52 | 45.62792 | 5.20155 | 10426 ft | 308 kts | 140° |
| 2026-05-01 14:53 | 45.60912 | 5.21677 | 11223 ft | 324 kts | 167° |
| 2026-05-01 14:53 | 45.58663 | 5.21934 | 12102 ft | 335 kts | 184° |
| 2026-05-01 14:53 | 45.56327 | 5.22166 | 13146 ft | 349 kts | 169° |
| 2026-05-01 14:53 | 45.54091 | 5.23605 | 14063 ft | 366 kts | 147° |
| 2026-05-01 14:54 | 45.52320 | 5.26196 | 14209 ft | 371 kts | 123° |
| 2026-05-01 14:54 | 45.51430 | 5.29634 | 14243 ft | 369 kts | 98° |
| 2026-05-01 14:54 | 45.51129 | 5.33244 | 14236 ft | 369 kts | 97° |
| 2026-05-01 14:54 | 45.50568 | 5.36800 | 14237 ft | 369 kts | 107° |
| 2026-05-01 14:55 | 45.49958 | 5.40370 | 14226 ft | 369 kts | 95° |
| 2026-05-01 14:55 | 45.50129 | 5.43933 | 14239 ft | 366 kts | 73° |
| 2026-05-01 14:55 | 45.51089 | 5.47286 | 14238 ft | 362 kts | 57° |
| 2026-05-01 14:55 | 45.52592 | 5.50100 | 14233 ft | 357 kts | 39° |
| 2026-05-01 14:56 | 45.54627 | 5.51991 | 14242 ft | 349 kts | 19° |
| 2026-05-01 14:56 | 45.56903 | 5.53257 | 14233 ft | 349 kts | 17° |
| 2026-05-01 14:56 | 45.59126 | 5.54528 | 14236 ft | 349 kts | 18° |
| 2026-05-01 14:56 | 45.61373 | 5.55848 | 14236 ft | 349 kts | 18° |
| 2026-05-01 14:57 | 45.63636 | 5.57153 | 14236 ft | 349 kts | 18° |
| 2026-05-01 14:57 | 45.67696 | 5.60854 | 14236 ft | 358 kts | 45° |
| 2026-05-01 14:57 | 45.69098 | 5.63847 | 14241 ft | 362 kts | 59° |
| 2026-05-01 14:58 | 45.70210 | 5.67059 | 14241 ft | 363 kts | 62° |
| 2026-05-01 14:58 | 45.71338 | 5.70271 | 14246 ft | 362 kts | 60° |
| 2026-05-01 14:58 | 45.72634 | 5.73380 | 14233 ft | 360 kts | 51° |
| 2026-05-01 14:58 | 45.74218 | 5.76091 | 14235 ft | 358 kts | 43° |
| 2026-05-01 14:59 | 45.76023 | 5.78528 | 14237 ft | 356 kts | 39° |
| 2026-05-01 14:59 | 45.77858 | 5.80884 | 14236 ft | 356 kts | 39° |
| 2026-05-01 14:59 | 45.79699 | 5.83284 | 14280 ft | 367 kts | 39° |
| 2026-05-01 14:59 | 45.81625 | 5.85784 | 15245 ft | 375 kts | 39° |
| 2026-05-01 15:00 | 45.85451 | 5.90734 | 17420 ft | 376 kts | 38° |
| 2026-05-01 15:00 | 45.87393 | 5.93246 | 18343 ft | 380 kts | 38° |
| 2026-05-01 15:00 | 45.89337 | 5.95760 | 19193 ft | 384 kts | 38° |
| 2026-05-01 15:01 | 45.91327 | 5.98336 | 19993 ft | 390 kts | 38° |
| 2026-05-01 15:01 | 45.93357 | 6.00961 | 20216 ft | 398 kts | 38° |